Aérodrome :
LOGIN :

S'inscrire | Disclaimer

   EN    FR    IT 

 










Légende :    VFR   VFR Marginal   IFR   IFR Intensif   IFR Très Intensif
Visi : 
Plafond : 
>= 8 km
>= 3000ft
5 à 8 km
1000 à 3000 ft
1500m à 5 km
500 à 1000 ft
800 à 1500m
200 à 500 ft
< 800m
< 200 ft
Symboles :   Orages  Brouillard  Fortes neiges  Fortes précipitations  Vent > 20 kt
SIGMETs :   Divers  Orages  Givrage  Turbulence  Onde Orograph.  Cendres Volcan.






- Altitude de l'aérodrome : 102 ft
- Code IATA : CNG


LFBG - Cognac

DERNIER METAR :
  • 251830Z AUTO 28011KT CAVOK 19/09 Q1025

METARs EXPIRÉS :
  • 251800Z AUTO 29010KT 260V320 9999 FEW044 19/09 Q1024
  • 251730Z AUTO 30011KT 9999 FEW044 19/08 Q1024
  • 251700Z AUTO 30012KT CAVOK 20/08 Q1024
  • 251630Z AUTO 31012KT CAVOK 20/08 Q1023
  • 251600Z AUTO 29013KT CAVOK 21/07 Q1023 TEMPO 30015G25KT

TAF TAF LFBG
Valide du 25 à 15h jusqu'au 26 à 15h UTC


251400Z 2515/2615 28010KT CAVOK
TEMPO 2515/2519 30015G25KT
BECMG 2522/2524 VRB02KT
BECMG 2600/2602 BKN012
PROB30
TEMPO 2602/2607 2000 -RADZ BKN005



MET'MAP, la Météo Aéronautique d'un coup d'oeil ! - Copyright ORBIFLY Décembre 2007 - Disclaimer

ORBIFLY MET'MAP TEAM :

Programmation & Développement : Alexandra Zaïnal
Sur une idée originale de : Baudouin d'Aumeries
Soutien technique & logistique : Manuel Goepfert
Assistance : Marc-Olivier Méhu

Contact : metmap@orbifly.com




SOURCES & CREDITS :

   NOAA